Nearby METAR Reports

 

KSJC - San Jose, California, USA
Distance from station: NE 14km
Updated: 28/07/2021 00:53
Clear
Clear
 Wind from NNW
Wind: NNW 7 km/h
Temperature: 18°C
Dew Point: 13°C
Humidity: 73%
Barometer: 1016.6 hPa
Clouds: Clear
Visibility: 16 km
2021/07/28 07:53 KSJC 280753Z AUTO 34004KT 10SM CLR 18/13 A3002 RMK AO2 SLP163 T01780128 402890167
KNUQ - Moffett Nas/Mtn, California, USA
Distance from station: N 14km
Updated: 28/07/2021 01:15
Clear
Clear
 Wind from NW
Wind: NW 7 km/h
Temperature: 17°C
Dew Point: 15°C
Humidity: 88%
Barometer: 1016.6 hPa
Clouds: Clear
Visibility: 16 km
2021/07/28 08:15 KNUQ 280815Z AUTO 31004KT 10SM CLR 17/15 A3002 RMK AO2
 
KPAO - Palo Alto, California, USA
Distance from station: NNW 23km
Updated: 27/07/2021 20:47
NOT Current
Clear
Clear
 Wind from N
Wind: N 24 km/h
Temperature: 19°C
Dew Point: 14°C
Humidity: 73%
Barometer: 1015.2 hPa
Clouds: Clear
Visibility: 16 km
2021/07/28 03:47 KPAO 280347Z 35013KT 10SM SKC 19/14 A2998 RMK LAST
KRHV - San Jose/Reid, California, USA
Distance from station: ENE 19km
Updated: 27/07/2021 21:57
NOT Current
Clear
Clear
 Wind from WNW
Wind: WNW 11 km/h
Temperature: 22°C
Dew Point: 11°C
Humidity: 50%
Barometer: 1016.3 hPa
Clouds: Clear
Visibility: 16 km
2021/07/28 04:57 KRHV 280457Z 29006KT 10SM SKC 22/11 A3001 RMK LAST
 
KOAK - Oakland, California, USA
Distance from station: NNW 50km
Updated: 28/07/2021 00:53
Few Clouds
Few Clouds
 Wind from NW
Wind: NW 7 km/h
Temperature: 16°C
Dew Point: 13°C
Humidity: 83%
Barometer: 1016.9 hPa
Clouds: Few Clouds
Visibility: 16 km
Cloud details: Few Clouds 244 m
2021/07/28 07:53 KOAK 280753Z 31004KT 10SM FEW008 16/13 A3003 RMK AO2 SLP168 T01560133 402500139
KSQL - San Carlos Airpo, California, USA
Distance from station: NW 34km
Updated: 28/07/2021 01:35
Clear
Clear
 Wind from calm
Wind: Calm
Temperature: 17°C
Dew Point: 14°C
Humidity: 83%
Barometer: 1016.9 hPa
Clouds: Clear
Visibility: 16 km
2021/07/28 08:35 KSQL 280835Z AUTO 00000KT 10SM CLR 17/14 A3003 RMK AO2
 
KSFO - San Francisco, California, USA
Distance from station: NW 49km
Updated: 28/07/2021 00:56
Few Clouds
Few Clouds
 Wind from WNW
Wind: WNW 15 km/h
Temperature: 15°C
Dew Point: 13°C
Humidity: 88%
Barometer: 1016.6 hPa
Clouds: Few Clouds
Visibility: 16 km
Cloud details: Few Clouds 61 m
2021/07/28 07:56 KSFO 280756Z 29008KT 10SM FEW002 15/13 A3002 RMK AO2 SLP165 T01500128 402390144
KE16 - San Martin, California, USA
Distance from station: ESE 43km
Updated: 28/07/2021 01:15
Clear
Clear
 Wind from calm
Wind: Calm
Temperature: 15°C
Dew Point: 12°C
Humidity: 82%
Barometer: 1017.6 hPa
Clouds: Clear
Visibility: 16 km
2021/07/28 08:15 KE16 280815Z AUTO 00000KT 10SM CLR 15/12 A3005 RMK AO2 PWINO PNO
 
KWVI - Watsonville, California, USA
Distance from station: SSE 44km
Updated: 28/07/2021 00:53
Overcast
Overcast
 Wind from calm
Wind: Calm
Temperature: 14°C
Dew Point: 13°C
Humidity: 94%
Barometer: 1017.3 hPa
Clouds: Overcast
Visibility: 16 km
Cloud details: Overcast 213 m
2021/07/28 07:53 KWVI 280753Z AUTO 00000KT 10SM OVC007 14/13 A3004 RMK AO2 SLPNO T01440133 402280139
KHAF - Half Moon Bay, California, USA
Distance from station: WNW 50km
Updated: 09/07/2021 07:35
NOT Current
Light rain, Clear
Light rain, Clear
 
Temperature: 13°C
Dew Point: 12°C
Humidity: 94%
Barometer: 1012.9 hPa
Summary: Light rain
Clouds: Clear
Visibility: 6 km
2021/07/09 14:35 KHAF 091435Z AUTO 4SM -RA CLR 13/12 A2991 RMK AO2
 
KHWD - Hayward, California, USA
Distance from station: N 44km
Updated: 28/07/2021 00:54
Clear
Clear
 Wind from WNW
Wind: WNW 9 km/h
Temperature: 16°C
Dew Point: 13°C
Humidity: 83%
Barometer: 1016.6 hPa
Clouds: Clear
Visibility: 16 km
2021/07/28 07:54 KHWD 280754Z 30005KT 10SM CLR 16/13 A3002 RMK AO2 SLP173 T01560133 402830150
KLVK - Livermore, California, USA
Distance from station: NNE 51km
Updated: 28/07/2021 00:53
Clear
Clear
 Wind from NW
Wind: NW 6 km/h
Temperature: 21°C
Dew Point: 7°C
Humidity: 40%
Barometer: 1016.3 hPa
Clouds: Clear
Visibility: 16 km
2021/07/28 07:53 KLVK 280753Z AUTO 32003KT 10SM CLR 21/07 A3001 RMK AO2 SLP156 T02060067 403670178